Time;durP1;ratioP1;P1;durP2;ratioP2;P2;SDS_P1;SDS_P2;PMS_P1;PMS_P2;Temp;Humidity;BMP_temperature;BMP_pressure;BME280_temperature;BME280_humidity;BME280_pressure;Samples;Min_cycle;Max_cycle;Signal;HPM_P1;HPM_P2
2021/12/10 00:00:34;;;;;;;9.93;5.25;;;4.70;95.00;;;;;;2079847;28;20025;-89
2021/12/10 00:01:48;;;;;;;10.63;5.80;;;4.60;95.00;;;;;;2080671;28;20104;-89
2021/12/10 00:02:49;;;;;;;10.10;5.35;;;4.60;95.00;;;;;;2074741;28;20034;-90
2021/12/10 00:03:52;;;;;;;8.52;5.25;;;4.60;95.00;;;;;;2064562;28;20120;-89
2021/12/10 00:04:53;;;;;;;10.32;5.30;;;4.60;95.10;;;;;;2065110;28;20113;-89
2021/12/10 00:06:08;;;;;;;8.77;5.10;;;4.60;95.10;;;;;;2087243;28;20403;-89
2021/12/10 00:07:16;;;;;;;10.32;5.63;;;4.60;95.10;;;;;;2074745;28;20049;-88
2021/12/10 00:08:18;;;;;;;7.63;5.03;;;4.60;95.10;;;;;;2073914;28;20029;-88
2021/12/10 00:09:23;;;;;;;9.52;5.15;;;4.50;95.00;;;;;;2073175;28;20452;-88
2021/12/10 00:10:29;;;;;;;10.18;6.05;;;4.50;95.10;;;;;;2089102;28;20033;-88
2021/12/10 00:11:41;;;;;;;10.55;5.50;;;4.50;95.10;;;;;;2083557;28;20483;-89
2021/12/10 00:12:50;;;;;;;9.75;5.28;;;4.50;95.10;;;;;;2083775;28;20443;-89
2021/12/10 00:13:51;;;;;;;10.73;5.38;;;4.50;95.10;;;;;;2090215;28;20033;-89
2021/12/10 00:14:53;;;;;;;12.02;6.03;;;4.50;95.10;;;;;;2088562;28;20025;-90
2021/12/10 00:15:55;;;;;;;9.30;5.38;;;4.50;95.10;;;;;;2074547;28;20021;-89
2021/12/10 00:16:57;;;;;;;9.57;5.97;;;4.50;95.10;;;;;;2074009;28;20026;-90
2021/12/10 00:18:02;;;;;;;11.82;5.80;;;4.50;95.10;;;;;;2074340;28;20030;-89
2021/12/10 00:19:20;;;;;;;10.98;6.20;;;4.50;95.00;;;;;;2081682;28;20026;-89
2021/12/10 00:20:25;;;;;;;12.63;6.10;;;4.50;95.00;;;;;;2072495;28;20049;-90
2021/12/10 00:21:26;;;;;;;9.45;5.88;;;4.50;95.00;;;;;;2073598;28;20076;-89
2021/12/10 00:22:37;;;;;;;10.43;6.78;;;4.50;95.00;;;;;;2065682;28;20027;-89
2021/12/10 00:23:38;;;;;;;9.77;6.25;;;4.50;95.00;;;;;;2076036;28;20404;-91
2021/12/10 00:24:41;;;;;;;8.65;5.60;;;4.50;95.00;;;;;;2072605;28;20034;-90
2021/12/10 00:25:47;;;;;;;9.40;6.07;;;4.50;95.00;;;;;;2074366;28;20033;-89
2021/12/10 00:26:47;;;;;;;10.98;5.53;;;4.50;95.00;;;;;;2090841;28;20021;-89
2021/12/10 00:27:52;;;;;;;10.05;6.50;;;4.50;95.00;;;;;;2082868;28;20527;-90
2021/12/10 00:29:01;;;;;;;9.95;6.70;;;4.50;95.00;;;;;;2083056;28;20044;-89
2021/12/10 00:30:12;;;;;;;9.70;6.50;;;4.50;95.00;;;;;;2090973;28;20387;-90
2021/12/10 00:32:38;;;;;;;12.55;6.90;;;4.40;95.00;;;;;;2091236;28;20124;-88
2021/12/10 00:33:41;;;;;;;10.60;6.22;;;4.40;95.00;;;;;;2082031;28;20021;-89
2021/12/10 00:34:48;;;;;;;11.77;6.43;;;4.40;95.00;;;;;;2073085;28;20511;-89
2021/12/10 00:35:49;;;;;;;12.05;6.53;;;4.40;95.00;;;;;;2080829;28;20021;-89
2021/12/10 00:36:54;;;;;;;11.82;6.90;;;4.40;95.00;;;;;;2082306;28;20033;-90
2021/12/10 00:37:55;;;;;;;11.20;6.57;;;4.40;95.00;;;;;;2082650;28;20053;-89
2021/12/10 00:38:56;;;;;;;11.27;6.78;;;4.40;95.00;;;;;;2090327;28;20033;-89
2021/12/10 00:40:00;;;;;;;12.30;7.25;;;4.30;95.00;;;;;;2082102;28;20028;-90
2021/12/10 00:41:04;;;;;;;10.82;7.40;;;4.30;95.00;;;;;;2081165;28;20020;-89
2021/12/10 00:42:09;;;;;;;11.43;7.60;;;4.30;95.00;;;;;;2082242;28;20040;-89
2021/12/10 00:43:10;;;;;;;14.27;7.70;;;4.30;95.00;;;;;;2078008;28;20480;-89
2021/12/10 00:44:11;;;;;;;11.07;7.15;;;4.30;95.00;;;;;;2069637;28;20142;-89
2021/12/10 00:45:14;;;;;;;15.10;6.75;;;4.30;95.00;;;;;;2063540;28;20553;-89
2021/12/10 00:46:15;;;;;;;11.77;7.57;;;4.30;95.00;;;;;;2058189;28;20031;-89
2021/12/10 00:47:16;;;;;;;9.93;7.05;;;4.30;95.00;;;;;;2073549;28;20022;-89
2021/12/10 00:48:17;;;;;;;10.35;6.88;;;4.30;95.00;;;;;;2081877;28;20068;-90
2021/12/10 00:49:18;;;;;;;12.07;7.28;;;4.30;95.00;;;;;;2074088;28;20057;-90
2021/12/10 00:50:27;;;;;;;11.50;6.85;;;4.30;95.00;;;;;;2073110;28;20121;-90
2021/12/10 00:51:28;;;;;;;10.57;7.10;;;4.30;95.00;;;;;;2074607;28;20029;-90
2021/12/10 00:52:29;;;;;;;11.95;6.65;;;4.30;95.00;;;;;;2057714;28;20417;-89
2021/12/10 00:53:29;;;;;;;11.43;7.07;;;4.30;95.00;;;;;;2065765;28;20468;-91
2021/12/10 00:54:30;;;;;;;11.38;7.32;;;4.30;95.00;;;;;;2076372;28;20165;-89
2021/12/10 00:55:31;;;;;;;10.48;6.50;;;4.30;95.00;;;;;;2073875;28;20500;-90
2021/12/10 00:56:32;;;;;;;10.40;6.90;;;4.30;95.00;;;;;;2073837;28;20026;-89
2021/12/10 00:57:33;;;;;;;11.07;6.78;;;4.30;95.00;;;;;;2090876;28;20075;-89
2021/12/10 00:58:35;;;;;;;12.57;7.38;;;4.30;95.00;;;;;;2091871;28;20032;-89
2021/12/10 00:59:37;;;;;;;11.57;7.07;;;4.30;95.00;;;;;;2092013;28;20068;-85
2021/12/10 01:00:42;;;;;;;10.55;6.93;;;4.30;95.00;;;;;;2085368;28;20041;-86
2021/12/10 01:01:43;;;;;;;11.90;7.82;;;4.30;95.00;;;;;;2080537;28;20040;-87
2021/12/10 01:02:45;;;;;;;10.10;7.03;;;4.30;95.00;;;;;;2077925;28;20034;-85
2021/12/10 01:03:54;;;;;;;9.95;6.50;;;4.30;95.00;;;;;;2087468;28;20024;-87
2021/12/10 01:04:59;;;;;;;9.95;6.47;;;4.30;95.00;;;;;;2093648;28;20024;-86
2021/12/10 01:06:04;;;;;;;11.68;7.57;;;4.30;95.00;;;;;;2094789;28;20013;-87
2021/12/10 01:07:10;;;;;;;12.95;7.22;;;4.30;94.90;;;;;;2091180;28;20033;-90
2021/12/10 01:08:11;;;;;;;12.02;7.18;;;4.30;94.90;;;;;;2090615;28;20025;-89
2021/12/10 01:09:19;;;;;;;10.90;7.38;;;4.30;94.90;;;;;;2081265;28;20116;-89
2021/12/10 01:10:32;;;;;;;10.13;6.80;;;4.30;94.90;;;;;;2080991;28;20561;-89
2021/12/10 01:11:39;;;;;;;10.40;6.95;;;4.30;94.90;;;;;;2075328;28;20026;-90
2021/12/10 01:12:47;;;;;;;11.27;7.00;;;4.30;94.90;;;;;;2082457;28;20393;-89
2021/12/10 01:13:51;;;;;;;10.52;7.00;;;4.30;94.90;;;;;;2083300;28;20096;-88
2021/12/10 01:15:19;;;;;;;9.52;6.50;;;4.30;94.90;;;;;;2089730;28;20491;-88
2021/12/10 01:24:52;;;;;;;11.07;6.75;;;4.30;94.70;;;;;;2080881;28;20033;-89
2021/12/10 01:26:07;;;;;;;10.35;6.80;;;4.30;94.70;;;;;;2072995;28;20044;-90
2021/12/10 01:27:24;;;;;;;10.75;6.50;;;4.30;94.70;;;;;;2077365;28;20105;-89
2021/12/10 01:28:24;;;;;;;9.75;6.85;;;4.30;94.70;;;;;;2092945;28;20029;-89
2021/12/10 01:29:32;;;;;;;10.27;6.97;;;4.20;94.70;;;;;;2083737;28;20028;-90
2021/12/10 01:30:36;;;;;;;10.07;7.38;;;4.30;94.70;;;;;;2076392;28;20025;-90
2021/12/10 01:31:38;;;;;;;11.13;6.82;;;4.30;94.70;;;;;;2075421;28;20085;-89
2021/12/10 01:32:43;;;;;;;12.68;7.10;;;4.20;94.70;;;;;;2066066;28;20069;-89
2021/12/10 01:33:44;;;;;;;11.95;7.55;;;4.30;94.70;;;;;;2074088;28;20048;-89
2021/12/10 01:34:45;;;;;;;8.77;6.43;;;4.30;94.90;;;;;;2071712;28;20029;-89
2021/12/10 01:35:53;;;;;;;9.30;6.03;;;4.30;94.70;;;;;;2082727;28;20533;-89
2021/12/10 01:36:54;;;;;;;9.43;6.20;;;4.30;94.70;;;;;;2099055;28;20013;-89
2021/12/10 01:37:56;;;;;;;10.43;7.13;;;4.20;94.70;;;;;;2099083;28;20090;-89
2021/12/10 01:38:57;;;;;;;10.52;7.05;;;4.20;94.60;;;;;;2084004;28;20040;-88
2021/12/10 01:39:58;;;;;;;11.80;7.05;;;4.20;94.60;;;;;;2073514;28;20026;-88
2021/12/10 01:41:00;;;;;;;11.73;7.22;;;4.20;94.70;;;;;;2081582;28;20040;-90
2021/12/10 01:42:14;;;;;;;10.93;7.03;;;4.20;94.70;;;;;;2081528;28;20029;-90
2021/12/10 01:43:23;;;;;;;9.98;6.65;;;4.20;94.70;;;;;;2067477;28;20393;-91
2021/12/10 01:44:29;;;;;;;9.23;6.70;;;4.20;94.70;;;;;;2076540;28;20034;-87
2021/12/10 01:45:34;;;;;;;9.18;6.53;;;4.20;94.70;;;;;;2088076;28;20111;-88
2021/12/10 01:46:38;;;;;;;11.68;7.30;;;4.10;94.70;;;;;;2088276;28;20044;-89
2021/12/10 01:47:39;;;;;;;10.00;7.35;;;4.20;94.70;;;;;;2073228;28;20030;-88
2021/12/10 01:48:45;;;;;;;9.90;7.00;;;4.10;94.70;;;;;;2066111;28;20416;-89
2021/12/10 01:49:46;;;;;;;11.20;6.85;;;4.10;94.70;;;;;;2082278;28;20021;-89
2021/12/10 01:50:48;;;;;;;9.57;6.53;;;4.10;94.70;;;;;;2090503;28;20024;-90
2021/12/10 01:51:49;;;;;;;10.50;6.82;;;4.10;94.70;;;;;;2089410;28;20025;-89
2021/12/10 01:52:57;;;;;;;8.93;6.35;;;4.10;94.70;;;;;;2091264;28;20628;-89
2021/12/10 01:54:02;;;;;;;10.52;6.43;;;4.10;94.80;;;;;;2089639;28;20459;-90
2021/12/10 01:55:04;;;;;;;7.78;5.85;;;4.00;94.70;;;;;;2089447;28;20031;-89
2021/12/10 01:56:11;;;;;;;8.73;6.03;;;4.00;94.80;;;;;;2075541;28;20033;-89
2021/12/10 01:57:14;;;;;;;8.13;5.72;;;4.00;94.80;;;;;;2080280;28;20108;-89
2021/12/10 01:58:18;;;;;;;9.02;5.85;;;4.00;94.80;;;;;;2073273;28;20018;-90
2021/12/10 01:59:19;;;;;;;8.80;6.28;;;4.00;94.80;;;;;;2082044;28;20017;-90
2021/12/10 02:00:26;;;;;;;9.40;6.25;;;4.00;94.80;;;;;;2090455;28;20017;-90
2021/12/10 02:01:40;;;;;;;9.45;5.90;;;3.90;94.80;;;;;;2089994;28;20410;-90
2021/12/10 02:02:45;;;;;;;9.02;6.28;;;3.90;94.80;;;;;;2090044;28;20467;-90
2021/12/10 02:03:47;;;;;;;11.88;6.10;;;3.90;94.80;;;;;;2080927;28;20108;-90
2021/12/10 02:04:48;;;;;;;10.77;6.03;;;3.90;94.80;;;;;;2081787;28;20052;-89
2021/12/10 02:05:49;;;;;;;7.97;5.95;;;3.90;94.80;;;;;;2072186;28;20030;-89
2021/12/10 02:06:51;;;;;;;10.20;5.90;;;3.90;94.90;;;;;;2062703;28;20385;-90
2021/12/10 02:07:54;;;;;;;9.70;6.10;;;3.90;94.90;;;;;;2073309;28;20046;-90
2021/12/10 02:08:55;;;;;;;9.20;5.95;;;3.90;94.90;;;;;;2073736;28;20026;-90
2021/12/10 02:09:56;;;;;;;8.52;5.70;;;3.80;94.80;;;;;;2085297;28;20025;-89
2021/12/10 02:10:57;;;;;;;8.63;5.45;;;3.80;94.90;;;;;;2098710;28;20532;-90
2021/12/10 02:11:58;;;;;;;8.93;5.80;;;3.80;94.90;;;;;;2085195;28;20108;-89
2021/12/10 02:12:59;;;;;;;8.25;5.88;;;3.80;94.90;;;;;;2070539;28;20065;-91
2021/12/10 02:14:00;;;;;;;10.02;5.65;;;3.80;94.90;;;;;;2078830;28;20038;-90
2021/12/10 02:15:03;;;;;;;8.18;5.60;;;3.80;94.90;;;;;;2087911;28;20053;-89
2021/12/10 02:16:05;;;;;;;10.85;5.65;;;3.80;94.90;;;;;;2081472;28;20021;-90
2021/12/10 02:17:06;;;;;;;8.98;5.45;;;3.80;94.90;;;;;;2071055;28;20042;-89
2021/12/10 02:18:07;;;;;;;9.73;6.32;;;3.70;94.90;;;;;;2081525;28;20044;-89
2021/12/10 02:19:10;;;;;;;8.23;5.05;;;3.70;94.90;;;;;;2085992;28;20071;-90
2021/12/10 02:20:33;;;;;;;9.02;5.40;;;3.70;94.90;;;;;;2078754;28;20029;-89
2021/12/10 02:21:36;;;;;;;9.05;5.55;;;3.70;95.00;;;;;;2075705;28;20423;-89
2021/12/10 02:22:37;;;;;;;8.45;5.68;;;3.70;95.00;;;;;;2073480;28;20076;-90
2021/12/10 02:23:44;;;;;;;8.27;5.20;;;3.70;95.00;;;;;;2063218;28;20026;-90
2021/12/10 02:24:44;;;;;;;7.47;5.15;;;3.70;95.00;;;;;;2073644;28;20060;-90
2021/12/10 02:25:45;;;;;;;8.70;5.32;;;3.70;95.00;;;;;;2072915;28;20076;-90
2021/12/10 02:26:54;;;;;;;10.50;5.57;;;3.60;95.00;;;;;;2073819;28;20041;-90
2021/12/10 02:27:55;;;;;;;8.85;5.72;;;3.60;95.00;;;;;;2080746;28;20042;-90
2021/12/10 02:28:56;;;;;;;8.80;5.75;;;3.60;95.00;;;;;;2064698;28;20416;-90
2021/12/10 02:29:57;;;;;;;7.97;5.43;;;3.60;95.00;;;;;;2070195;28;20026;-90
2021/12/10 02:30:59;;;;;;;10.77;6.00;;;3.60;95.00;;;;;;2081217;28;20025;-90
2021/12/10 02:32:00;;;;;;;7.93;5.22;;;3.60;95.00;;;;;;2081188;28;20045;-90
2021/12/10 02:33:02;;;;;;;9.82;5.20;;;3.60;95.00;;;;;;2080945;28;20344;-90
2021/12/10 02:34:04;;;;;;;7.82;5.28;;;3.50;95.00;;;;;;2081020;28;20033;-90
2021/12/10 02:35:07;;;;;;;9.65;5.45;;;3.50;95.00;;;;;;2073095;28;20018;-90
2021/12/10 02:36:12;;;;;;;9.23;5.50;;;3.50;95.00;;;;;;2065727;28;20030;-90
2021/12/10 02:37:13;;;;;;;8.85;5.32;;;3.50;95.00;;;;;;2081662;28;20025;-90
2021/12/10 02:38:16;;;;;;;8.95;5.55;;;3.50;95.00;;;;;;2071847;28;20034;-89
2021/12/10 02:39:21;;;;;;;7.68;5.28;;;3.50;95.00;;;;;;2065398;28;20413;-90
2021/12/10 02:40:24;;;;;;;7.57;5.07;;;3.50;95.10;;;;;;2071976;28;20033;-90
2021/12/10 02:41:31;;;;;;;9.60;5.47;;;3.50;95.10;;;;;;2073292;28;20053;-90
2021/12/10 02:42:32;;;;;;;7.85;5.15;;;3.40;95.00;;;;;;2082394;28;20029;-90
2021/12/10 02:43:33;;;;;;;8.63;5.18;;;3.40;95.00;;;;;;2073538;28;20123;-90
2021/12/10 02:44:34;;;;;;;8.82;5.20;;;3.40;95.00;;;;;;2068344;28;20496;-90
2021/12/10 02:45:37;;;;;;;9.25;5.43;;;3.40;95.10;;;;;;2081086;28;20100;-90
2021/12/10 02:46:39;;;;;;;8.57;5.13;;;3.40;95.10;;;;;;2086700;28;20025;-90
2021/12/10 02:47:39;;;;;;;9.75;5.18;;;3.30;95.10;;;;;;2065275;28;20587;-90
2021/12/10 02:48:40;;;;;;;8.73;5.45;;;3.30;95.00;;;;;;2071785;28;20040;-90
2021/12/10 02:49:41;;;;;;;8.38;4.78;;;3.30;95.10;;;;;;2066851;28;20027;-87
2021/12/10 02:50:43;;;;;;;8.88;5.25;;;3.30;95.30;;;;;;2061363;28;20031;-87
2021/12/10 02:51:44;;;;;;;7.75;4.72;;;3.30;95.10;;;;;;2069467;28;20508;-86
2021/12/10 02:52:45;;;;;;;7.85;5.18;;;3.30;95.10;;;;;;2077717;28;20030;-87
2021/12/10 02:53:46;;;;;;;8.30;4.82;;;3.30;95.10;;;;;;2084965;28;20056;-87
2021/12/10 02:54:47;;;;;;;9.93;5.20;;;3.30;95.10;;;;;;2084205;28;20535;-86
2021/12/10 02:55:48;;;;;;;8.43;5.10;;;3.30;95.10;;;;;;2083677;28;20578;-86
2021/12/10 02:56:52;;;;;;;6.65;4.32;;;3.20;95.10;;;;;;2083943;28;20025;-86
2021/12/10 02:57:56;;;;;;;8.77;4.85;;;3.20;95.10;;;;;;2082835;28;20056;-89
2021/12/10 02:59:01;;;;;;;8.00;4.55;;;3.20;95.10;;;;;;2072726;28;20034;-90
2021/12/10 03:00:05;;;;;;;8.40;4.95;;;3.20;95.20;;;;;;2073366;28;20021;-89
2021/12/10 03:01:15;;;;;;;7.78;4.50;;;3.20;95.20;;;;;;2078879;28;20026;-90
2021/12/10 03:02:20;;;;;;;6.78;4.47;;;3.20;95.20;;;;;;2090659;28;20027;-90
2021/12/10 03:03:21;;;;;;;6.85;4.35;;;3.20;95.20;;;;;;2091349;28;20139;-90
2021/12/10 03:04:21;;;;;;;7.43;4.22;;;3.20;95.40;;;;;;2089533;28;20087;-90
2021/12/10 03:05:22;;;;;;;7.95;4.22;;;3.20;95.20;;;;;;2088755;28;20036;-90
2021/12/10 03:06:23;;;;;;;8.48;4.45;;;3.20;95.20;;;;;;2090186;28;20487;-90
2021/12/10 03:07:25;;;;;;;7.70;4.57;;;3.20;95.20;;;;;;2089626;28;20037;-90
2021/12/10 03:08:26;;;;;;;6.70;3.95;;;3.20;95.20;;;;;;2060894;28;20482;-90
2021/12/10 03:09:28;;;;;;;9.68;4.70;;;3.20;95.20;;;;;;2065012;28;20044;-90
2021/12/10 03:10:30;;;;;;;6.50;4.10;;;3.20;95.40;;;;;;2090011;28;20057;-91
2021/12/10 03:11:35;;;;;;;7.65;4.13;;;3.20;95.20;;;;;;2072701;28;20024;-90
2021/12/10 03:12:35;;;;;;;8.05;4.18;;;3.20;95.20;;;;;;2065355;28;20077;-89
2021/12/10 03:13:36;;;;;;;8.07;4.45;;;3.20;95.20;;;;;;2077558;28;20130;-90
2021/12/10 03:14:40;;;;;;;8.43;4.15;;;3.20;95.20;;;;;;2073894;28;20088;-90
2021/12/10 03:15:41;;;;;;;8.13;3.83;;;3.20;95.20;;;;;;2077938;28;20017;-90
2021/12/10 03:16:43;;;;;;;9.23;4.43;;;3.20;95.20;;;;;;2072640;28;20038;-90
2021/12/10 03:17:44;;;;;;;6.28;4.15;;;3.10;95.10;;;;;;2081524;28;21038;-91
2021/12/10 03:18:46;;;;;;;8.00;4.50;;;3.20;95.20;;;;;;2080437;28;20029;-90
2021/12/10 03:19:47;;;;;;;7.35;4.20;;;3.10;95.10;;;;;;2072968;28;20101;-91
2021/12/10 03:20:48;;;;;;;8.95;4.63;;;3.20;95.20;;;;;;2078668;28;20044;-90
2021/12/10 03:21:51;;;;;;;8.23;4.72;;;3.20;95.20;;;;;;2081011;28;20076;-91
2021/12/10 03:22:52;;;;;;;7.35;4.15;;;3.20;95.20;;;;;;2080057;28;20037;-91
2021/12/10 03:23:52;;;;;;;6.78;4.55;;;3.10;95.10;;;;;;2081586;28;20037;-90
2021/12/10 03:24:54;;;;;;;8.23;4.63;;;3.10;95.10;;;;;;2081930;28;20026;-91
2021/12/10 03:25:54;;;;;;;9.70;4.68;;;3.10;95.10;;;;;;2081096;28;20052;-90
2021/12/10 03:26:58;;;;;;;11.70;5.65;;;3.10;95.10;;;;;;2073159;28;20030;-90
2021/12/10 03:28:00;;;;;;;12.43;5.75;;;3.10;95.10;;;;;;2079048;28;20064;-90
2021/12/10 03:29:01;;;;;;;9.95;5.10;;;3.10;95.10;;;;;;2081928;28;20440;-90
2021/12/10 03:30:05;;;;;;;7.63;5.00;;;3.10;95.10;;;;;;2081776;28;20052;-90
2021/12/10 03:31:06;;;;;;;8.52;4.93;;;3.10;95.10;;;;;;2080110;28;20063;-90
2021/12/10 03:32:13;;;;;;;8.55;4.97;;;3.10;95.10;;;;;;2064962;28;20033;-90
2021/12/10 03:33:14;;;;;;;7.72;4.40;;;3.10;95.10;;;;;;2063695;28;20100;-91
2021/12/10 03:34:15;;;;;;;9.15;4.88;;;3.10;95.10;;;;;;2072854;28;20033;-91
2021/12/10 03:35:25;;;;;;;7.57;4.70;;;3.10;95.10;;;;;;2081709;28;20026;-91
2021/12/10 03:36:27;;;;;;;9.60;5.18;;;3.10;95.10;;;;;;2081564;28;20407;-90
2021/12/10 03:37:27;;;;;;;8.82;5.13;;;3.10;95.10;;;;;;2081020;28;20446;-91
2021/12/10 03:38:28;;;;;;;9.88;5.43;;;3.10;95.10;;;;;;2071546;28;20655;-90
2021/12/10 03:39:29;;;;;;;9.00;4.88;;;3.10;95.10;;;;;;2068124;28;20030;-91
2021/12/10 03:40:31;;;;;;;8.68;5.10;;;3.10;95.10;;;;;;2065018;28;20453;-90
2021/12/10 03:41:32;;;;;;;7.88;4.88;;;3.10;95.10;;;;;;2078653;28;20475;-91
2021/12/10 03:42:33;;;;;;;9.23;5.03;;;3.10;95.10;;;;;;2072563;28;20034;-90
2021/12/10 03:43:34;;;;;;;8.85;5.53;;;3.10;95.10;;;;;;2063631;28;20114;-90
2021/12/10 03:44:37;;;;;;;7.72;4.63;;;3.10;95.10;;;;;;2066474;28;20030;-91
2021/12/10 03:45:42;;;;;;;6.70;4.78;;;3.10;95.10;;;;;;2066351;28;20189;-90
2021/12/10 03:46:44;;;;;;;8.07;4.90;;;3.10;95.10;;;;;;2074639;28;20037;-91
2021/12/10 03:47:46;;;;;;;8.88;4.88;;;3.10;95.10;;;;;;2076061;28;20034;-90
2021/12/10 03:48:47;;;;;;;8.25;4.88;;;3.10;95.10;;;;;;2082391;28;20033;-91
2021/12/10 03:49:48;;;;;;;7.45;4.80;;;3.10;95.10;;;;;;2074015;28;20113;-91
2021/12/10 03:50:49;;;;;;;8.73;5.03;;;3.10;95.10;;;;;;2074245;28;20404;-91
2021/12/10 03:51:50;;;;;;;7.57;4.80;;;3.10;95.10;;;;;;2075152;28;20061;-92
2021/12/10 03:52:51;;;;;;;6.32;4.45;;;3.10;95.10;;;;;;2074296;28;20393;-90
2021/12/10 03:53:52;;;;;;;7.90;4.50;;;3.10;95.10;;;;;;2081896;28;20060;-91
2021/12/10 03:54:54;;;;;;;8.77;4.97;;;3.10;95.10;;;;;;2077428;28;20036;-90
2021/12/10 03:56:06;;;;;;;7.65;4.65;;;3.00;95.10;;;;;;2058309;28;20023;-90
2021/12/10 03:57:08;;;;;;;7.65;4.95;;;3.10;95.10;;;;;;2064330;28;20026;-90
2021/12/10 03:58:09;;;;;;;8.77;5.07;;;3.10;95.10;;;;;;2058584;28;20034;-89
2021/12/10 03:59:14;;;;;;;10.10;5.25;;;3.10;95.10;;;;;;2070912;28;20021;-89
2021/12/10 04:00:18;;;;;;;7.38;4.75;;;3.00;95.00;;;;;;2081041;28;20026;-91
2021/12/10 04:01:22;;;;;;;8.25;5.22;;;3.10;95.10;;;;;;2074389;28;20101;-91
2021/12/10 04:02:23;;;;;;;9.27;5.25;;;3.00;95.00;;;;;;2068142;28;20034;-91
2021/12/10 04:03:27;;;;;;;8.73;5.40;;;3.00;95.00;;;;;;2075122;28;20093;-91
2021/12/10 04:04:32;;;;;;;7.10;4.50;;;3.00;95.00;;;;;;2077160;28;20023;-90
2021/12/10 04:05:33;;;;;;;8.48;4.75;;;3.00;95.00;;;;;;2086014;28;20024;-91
2021/12/10 04:06:34;;;;;;;8.60;5.07;;;3.00;95.00;;;;;;2090946;28;20591;-91
2021/12/10 04:07:34;;;;;;;7.40;4.78;;;3.00;95.00;;;;;;2082494;28;20183;-91
2021/12/10 04:08:35;;;;;;;6.70;4.22;;;3.00;95.10;;;;;;2083172;28;20091;-91
2021/12/10 04:09:36;;;;;;;10.40;4.68;;;3.00;95.10;;;;;;2073836;28;20029;-90
2021/12/10 04:10:38;;;;;;;7.50;4.70;;;3.00;95.10;;;;;;2069027;28;20038;-91
2021/12/10 04:11:40;;;;;;;7.47;4.90;;;3.00;95.00;;;;;;2069722;28;20524;-90
2021/12/10 04:12:41;;;;;;;6.75;4.53;;;3.00;95.00;;;;;;2081879;28;20025;-91
2021/12/10 04:13:44;;;;;;;8.13;4.75;;;3.00;95.10;;;;;;2076236;28;20435;-91
2021/12/10 04:14:47;;;;;;;9.48;4.75;;;3.00;95.10;;;;;;2074753;28;20124;-91
2021/12/10 04:15:48;;;;;;;8.73;4.65;;;3.00;95.10;;;;;;2082549;28;20029;-91
2021/12/10 04:16:55;;;;;;;7.80;4.68;;;3.00;95.10;;;;;;2081724;28;20022;-91
2021/12/10 04:17:57;;;;;;;6.68;4.55;;;3.00;95.30;;;;;;2074308;28;20128;-90
2021/12/10 04:19:00;;;;;;;7.65;4.20;;;3.00;95.10;;;;;;2070445;28;20033;-90
2021/12/10 04:20:02;;;;;;;8.57;4.85;;;3.00;95.10;;;;;;2072204;28;20034;-90
2021/12/10 04:21:07;;;;;;;6.90;4.20;;;3.00;95.00;;;;;;2080254;28;20032;-91
2021/12/10 04:22:10;;;;;;;7.78;4.20;;;3.00;95.10;;;;;;2081779;28;20079;-90
2021/12/10 04:23:14;;;;;;;9.90;4.65;;;3.00;95.10;;;;;;2081827;28;20026;-90
2021/12/10 04:24:18;;;;;;;7.15;4.32;;;2.90;95.00;;;;;;2080197;28;20021;-91
2021/12/10 04:25:24;;;;;;;7.70;4.18;;;2.90;95.00;;;;;;2074868;28;20026;-91
2021/12/10 04:26:27;;;;;;;7.70;4.22;;;3.00;95.10;;;;;;2083057;28;20030;-91
2021/12/10 04:27:28;;;;;;;6.60;4.18;;;2.90;95.10;;;;;;2074857;28;20030;-90
2021/12/10 04:28:28;;;;;;;7.55;4.57;;;2.90;95.00;;;;;;2064630;28;20082;-91
2021/12/10 04:29:30;;;;;;;6.55;4.10;;;2.90;95.10;;;;;;2066170;28;20035;-91
2021/12/10 04:30:35;;;;;;;6.72;3.83;;;2.90;95.00;;;;;;2081986;28;20025;-90
2021/12/10 04:31:36;;;;;;;7.25;4.18;;;2.90;95.10;;;;;;2066073;28;20027;-91
2021/12/10 04:32:37;;;;;;;7.68;4.85;;;2.90;95.30;;;;;;2065772;28;20077;-90
2021/12/10 04:33:39;;;;;;;7.88;4.35;;;2.90;95.10;;;;;;2057092;28;20472;-90
2021/12/10 04:34:40;;;;;;;6.57;3.90;;;2.90;95.10;;;;;;2065964;28;20495;-91
2021/12/10 04:35:42;;;;;;;7.28;4.07;;;2.90;95.10;;;;;;2074600;28;20037;-91
2021/12/10 04:36:43;;;;;;;6.43;3.90;;;2.90;95.10;;;;;;2066177;28;20022;-91
2021/12/10 04:37:45;;;;;;;6.47;4.15;;;2.90;95.10;;;;;;2081875;28;20045;-91
2021/12/10 04:38:46;;;;;;;6.68;3.45;;;2.90;95.10;;;;;;2082258;28;20071;-91
2021/12/10 04:39:48;;;;;;;5.32;3.60;;;2.90;95.10;;;;;;2081868;28;20026;-91
2021/12/10 04:40:51;;;;;;;5.63;3.60;;;3.00;95.10;;;;;;2080815;28;20025;-91
2021/12/10 04:41:52;;;;;;;7.38;3.70;;;3.00;95.10;;;;;;2082902;28;20472;-91
2021/12/10 04:42:53;;;;;;;5.85;3.63;;;3.00;95.10;;;;;;2084220;28;20140;-87
2021/12/10 04:43:54;;;;;;;4.82;3.33;;;3.00;95.30;;;;;;2085150;28;20085;-87
2021/12/10 04:44:57;;;;;;;5.65;3.42;;;2.90;95.00;;;;;;2084095;28;20401;-87
2021/12/10 04:45:59;;;;;;;5.43;3.40;;;2.90;95.00;;;;;;2086433;28;20018;-88
2021/12/10 04:46:59;;;;;;;6.78;3.78;;;2.90;95.00;;;;;;2086833;28;20095;-87
2021/12/10 04:48:00;;;;;;;5.75;3.20;;;2.90;95.00;;;;;;2086660;28;20100;-88
2021/12/10 04:49:12;;;;;;;6.03;3.25;;;2.90;95.00;;;;;;2072072;28;20072;-88
2021/12/10 04:50:15;;;;;;;5.40;3.22;;;2.90;95.00;;;;;;2072224;28;20027;-90
2021/12/10 04:51:18;;;;;;;5.88;3.15;;;2.90;95.00;;;;;;2082001;28;20029;-90
2021/12/10 04:52:19;;;;;;;7.82;3.80;;;2.90;95.00;;;;;;2084702;28;20032;-90
2021/12/10 04:53:21;;;;;;;6.30;3.45;;;2.90;95.00;;;;;;2084466;28;20376;-91
2021/12/10 04:54:24;;;;;;;4.88;3.33;;;2.90;95.00;;;;;;2084153;28;20029;-91
2021/12/10 04:55:25;;;;;;;5.97;3.25;;;2.90;95.00;;;;;;2073512;28;20104;-90
2021/12/10 04:56:27;;;;;;;5.45;3.15;;;3.00;95.00;;;;;;2066172;28;20037;-89
2021/12/10 04:57:28;;;;;;;8.88;3.50;;;3.00;95.00;;;;;;2066022;28;20481;-91
2021/12/10 04:58:28;;;;;;;6.95;3.17;;;3.00;95.00;;;;;;2074078;28;20022;-90
2021/12/10 04:59:32;;;;;;;6.03;3.00;;;3.00;94.90;;;;;;2082139;28;20017;-90
2021/12/10 05:00:46;;;;;;;9.90;3.53;;;3.00;94.90;;;;;;2070540;28;20081;-90
2021/12/10 05:01:49;;;;;;;5.47;2.88;;;3.00;94.90;;;;;;2070819;28;20536;-91
2021/12/10 05:02:50;;;;;;;7.20;3.53;;;3.00;94.90;;;;;;2070646;28;20132;-91
2021/12/10 05:03:51;;;;;;;6.70;3.60;;;3.00;94.90;;;;;;2074335;28;20026;-91
2021/12/10 05:04:56;;;;;;;7.85;3.50;;;3.00;94.90;;;;;;2081567;28;20528;-91
2021/12/10 05:06:02;;;;;;;6.20;3.15;;;3.00;94.90;;;;;;2078252;28;20028;-90
2021/12/10 05:07:05;;;;;;;7.43;3.55;;;3.00;94.90;;;;;;2081915;28;20064;-91
2021/12/10 05:08:06;;;;;;;5.65;2.90;;;3.00;94.90;;;;;;2081990;28;20048;-90
2021/12/10 05:09:11;;;;;;;6.00;2.90;;;3.00;94.90;;;;;;2082706;28;20029;-90
2021/12/10 05:10:13;;;;;;;8.23;3.28;;;3.00;94.90;;;;;;2081663;28;20084;-90
2021/12/10 05:11:14;;;;;;;6.05;2.80;;;3.00;94.90;;;;;;2080049;28;20036;-90
2021/12/10 05:12:16;;;;;;;6.70;2.78;;;2.90;94.80;;;;;;2081738;28;20021;-90
2021/12/10 05:13:16;;;;;;;5.60;2.70;;;2.90;94.80;;;;;;2073713;28;20147;-90
2021/12/10 05:14:19;;;;;;;7.25;3.05;;;3.00;94.90;;;;;;2070600;28;20057;-90
2021/12/10 05:15:23;;;;;;;6.07;2.50;;;2.90;94.80;;;;;;2066664;28;20034;-90
2021/12/10 05:16:26;;;;;;;4.72;2.63;;;2.90;94.80;;;;;;2072808;28;20049;-91
2021/12/10 05:17:30;;;;;;;6.25;2.85;;;2.90;94.80;;;;;;2089511;28;20083;-89
2021/12/10 05:18:37;;;;;;;5.78;3.03;;;2.90;94.80;;;;;;2081602;28;20034;-90
2021/12/10 05:19:41;;;;;;;5.60;2.58;;;3.00;94.80;;;;;;2081576;28;20487;-89
2021/12/10 05:20:44;;;;;;;5.68;2.70;;;2.90;94.80;;;;;;2073737;28;20058;-90
2021/12/10 05:21:46;;;;;;;6.28;3.28;;;2.90;94.80;;;;;;2074959;28;20037;-89
2021/12/10 05:22:48;;;;;;;6.70;2.75;;;2.90;94.80;;;;;;2079941;28;20022;-90
2021/12/10 05:23:48;;;;;;;7.28;2.90;;;2.90;94.80;;;;;;2079451;28;20032;-89
2021/12/10 05:24:49;;;;;;;8.13;3.00;;;2.90;94.80;;;;;;2074402;28;20137;-90
2021/12/10 05:25:51;;;;;;;7.43;3.30;;;2.90;94.80;;;;;;2074568;28;20034;-90
2021/12/10 05:26:53;;;;;;;7.53;3.72;;;2.90;94.80;;;;;;2082104;28;20021;-90
2021/12/10 05:27:54;;;;;;;8.50;3.78;;;2.90;94.80;;;;;;2073586;28;20041;-91
2021/12/10 05:28:56;;;;;;;7.72;3.53;;;2.90;94.80;;;;;;2074129;28;20026;-90
2021/12/10 05:29:56;;;;;;;6.72;3.33;;;2.90;94.80;;;;;;2082395;28;20419;-91
2021/12/10 05:30:57;;;;;;;7.47;3.60;;;2.90;94.80;;;;;;2079093;28;20036;-89
2021/12/10 05:31:59;;;;;;;8.15;3.85;;;2.90;94.80;;;;;;2073300;28;20026;-90
2021/12/10 05:33:01;;;;;;;8.57;4.00;;;2.90;94.80;;;;;;2073804;28;20116;-90
2021/12/10 05:34:03;;;;;;;7.60;3.42;;;2.90;94.80;;;;;;2081998;28;20143;-90
2021/12/10 05:35:05;;;;;;;7.97;3.58;;;2.90;94.80;;;;;;2082111;28;20111;-90
2021/12/10 05:36:07;;;;;;;7.50;3.33;;;2.90;94.80;;;;;;2082211;28;20036;-90
2021/12/10 05:37:09;;;;;;;6.80;3.50;;;2.90;94.80;;;;;;2081475;28;20634;-91
2021/12/10 05:38:10;;;;;;;8.70;3.72;;;2.90;94.80;;;;;;2081944;28;20470;-90
2021/12/10 05:39:14;;;;;;;8.98;3.50;;;2.90;94.80;;;;;;2073534;28;20060;-90
2021/12/10 05:40:16;;;;;;;8.80;3.63;;;2.90;94.80;;;;;;2073612;28;20550;-90
2021/12/10 05:41:16;;;;;;;8.65;3.80;;;2.90;94.80;;;;;;2080205;28;20064;-91
2021/12/10 05:42:17;;;;;;;6.20;3.50;;;2.90;94.80;;;;;;2082356;28;20099;-91